Terminal Aerodrome Forecast
Issued by NWS Cleveland, OH

Home | Current Version | Previous Version | Graphics & Text | Print | Product List | Glossary On
Versions: 1 2 3 4 5 6 7 8 9 10 11 12 13 14 15 16 17
694
FTUS41 KCLE 230529
TAFCAK
TAF
KCAK 230529Z 2306/2406 13004KT P6SM SKC
     FM231600 21006KT P6SM SCT045
     FM240100 14003KT P6SM SCT250=

USA.gov is the U.S. government's official web portal to all federal, state and local government web resources and services.